Terminal Aerodrome Forecast
Issued by NWS Amarillo, TX

Home | Current Version | Previous Version | Text Only | Print | Product List | Glossary On
Versions: 1 2 3 4 5 6 7 8 9 10 11 12 13
593
FTUS44 KAMA 121720
TAFAMA
TAF
KAMA 121720Z 1218/1318 28008KT P6SM SKC
     FM122300 25011KT P6SM SKC
     FM131100 VRB06KT P6SM SKC WS009/04050KT
     FM131600 36018G28KT P6SM SKC=

USA.gov is the U.S. government's official web portal to all federal, state and local government web resources and services.